sensor_id;sensor_type;location;lat;lon;timestamp;pressure;altitude;pressure_sealevel;temperature;humidity
18985;BME280;9626;52.552;13.436;2023-02-28T00:01:26;102519.59;;;0.65;100.00
18985;BME280;9626;52.552;13.436;2023-02-28T00:03:52;102527.25;;;0.62;100.00
18985;BME280;9626;52.552;13.436;2023-02-28T00:06:19;102532.00;;;0.70;100.00
18985;BME280;9626;52.552;13.436;2023-02-28T00:08:45;102529.38;;;0.70;100.00
18985;BME280;9626;52.552;13.436;2023-02-28T00:11:13;102525.72;;;0.66;100.00
18985;BME280;9626;52.552;13.436;2023-02-28T00:13:42;102529.38;;;0.70;100.00
18985;BME280;9626;52.552;13.436;2023-02-28T00:16:18;102528.72;;;0.74;100.00
18985;BME280;9626;52.552;13.436;2023-02-28T00:18:44;102527.59;;;0.69;100.00
18985;BME280;9626;52.552;13.436;2023-02-28T00:21:10;102527.00;;;0.74;100.00
18985;BME280;9626;52.552;13.436;2023-02-28T00:23:36;102523.31;;;0.71;100.00
18985;BME280;9626;52.552;13.436;2023-02-28T00:26:02;102531.22;;;0.72;100.00
18985;BME280;9626;52.552;13.436;2023-02-28T00:28:28;102531.31;;;0.74;100.00
18985;BME280;9626;52.552;13.436;2023-02-28T00:30:54;102527.06;;;0.76;100.00
18985;BME280;9626;52.552;13.436;2023-02-28T00:33:20;102528.06;;;0.78;100.00
18985;BME280;9626;52.552;13.436;2023-02-28T00:35:46;102531.75;;;0.83;100.00
18985;BME280;9626;52.552;13.436;2023-02-28T00:38:15;102539.03;;;0.89;100.00
18985;BME280;9626;52.552;13.436;2023-02-28T00:40:41;102537.50;;;0.94;100.00
18985;BME280;9626;52.552;13.436;2023-02-28T00:43:07;102530.53;;;0.93;100.00
18985;BME280;9626;52.552;13.436;2023-02-28T00:45:33;102536.63;;;0.93;100.00
18985;BME280;9626;52.552;13.436;2023-02-28T00:47:59;102535.81;;;0.94;100.00
18985;BME280;9626;52.552;13.436;2023-02-28T00:50:25;102535.81;;;0.94;100.00
18985;BME280;9626;52.552;13.436;2023-02-28T00:52:51;102531.69;;;0.99;100.00
18985;BME280;9626;52.552;13.436;2023-02-28T00:55:17;102531.69;;;0.99;100.00
18985;BME280;9626;52.552;13.436;2023-02-28T00:57:44;102538.72;;;1.00;100.00
18985;BME280;9626;52.552;13.436;2023-02-28T01:00:10;102533.34;;;0.97;100.00
18985;BME280;9626;52.552;13.436;2023-02-28T01:02:36;102528.88;;;0.95;100.00
18985;BME280;9626;52.552;13.436;2023-02-28T01:05:03;102530.00;;;1.00;100.00
18985;BME280;9626;52.552;13.436;2023-02-28T01:07:29;102534.03;;;0.93;100.00
18985;BME280;9626;52.552;13.436;2023-02-28T01:09:55;102534.22;;;0.98;100.00
18985;BME280;9626;52.552;13.436;2023-02-28T01:12:21;102528.59;;;0.89;100.00
18985;BME280;9626;52.552;13.436;2023-02-28T01:14:48;102532.00;;;0.88;100.00
18985;BME280;9626;52.552;13.436;2023-02-28T01:17:14;102524.91;;;0.85;100.00
18985;BME280;9626;52.552;13.436;2023-02-28T01:19:40;102527.66;;;0.88;100.00
18985;BME280;9626;52.552;13.436;2023-02-28T01:22:06;102527.38;;;0.82;100.00
18985;BME280;9626;52.552;13.436;2023-02-28T01:24:32;102535.56;;;0.72;100.00
18985;BME280;9626;52.552;13.436;2023-02-28T01:26:58;102516.50;;;0.73;100.00
18985;BME280;9626;52.552;13.436;2023-02-28T01:29:24;102515.00;;;0.78;100.00
18985;BME280;9626;52.552;13.436;2023-02-28T01:31:50;102524.25;;;0.71;100.00
18985;BME280;9626;52.552;13.436;2023-02-28T01:34:16;102515.03;;;0.61;100.00
18985;BME280;9626;52.552;13.436;2023-02-28T01:36:45;102510.47;;;0.57;100.00
18985;BME280;9626;52.552;13.436;2023-02-28T01:39:11;102514.66;;;0.54;100.00
18985;BME280;9626;52.552;13.436;2023-02-28T01:41:39;102510.72;;;0.44;100.00
18985;BME280;9626;52.552;13.436;2023-02-28T01:46:52;102507.59;;;0.51;100.00
18985;BME280;9626;52.552;13.436;2023-02-28T01:49:19;102512.56;;;0.46;100.00
18985;BME280;9626;52.552;13.436;2023-02-28T01:51:51;102514.78;;;0.39;100.00
18985;BME280;9626;52.552;13.436;2023-02-28T01:54:24;102514.78;;;0.39;100.00
18985;BME280;9626;52.552;13.436;2023-02-28T01:57:04;102519.00;;;0.37;100.00
18985;BME280;9626;52.552;13.436;2023-02-28T01:59:45;102511.47;;;0.25;100.00
18985;BME280;9626;52.552;13.436;2023-02-28T02:02:18;102517.91;;;0.31;100.00
18985;BME280;9626;52.552;13.436;2023-02-28T02:07:35;102506.72;;;0.34;100.00
18985;BME280;9626;52.552;13.436;2023-02-28T02:13:25;102517.09;;;0.16;100.00
18985;BME280;9626;52.552;13.436;2023-02-28T02:15:29;102513.03;;;0.05;100.00
18985;BME280;9626;52.552;13.436;2023-02-28T02:29:44;102510.94;;;-0.19;100.00
18985;BME280;9626;52.552;13.436;2023-02-28T02:32:37;102509.69;;;-0.09;100.00
18985;BME280;9626;52.552;13.436;2023-02-28T02:35:15;102508.94;;;-0.23;100.00
18985;BME280;9626;52.552;13.436;2023-02-28T02:37:52;102508.94;;;-0.40;100.00
18985;BME280;9626;52.552;13.436;2023-02-28T02:40:30;102512.38;;;-0.41;100.00
18985;BME280;9626;52.552;13.436;2023-02-28T02:43:03;102508.53;;;-0.47;100.00
18985;BME280;9626;52.552;13.436;2023-02-28T02:45:44;102508.19;;;-0.54;100.00
18985;BME280;9626;52.552;13.436;2023-02-28T02:48:13;102511.03;;;-0.65;100.00
18985;BME280;9626;52.552;13.436;2023-02-28T02:50:49;102513.28;;;-0.72;100.00
18985;BME280;9626;52.552;13.436;2023-02-28T02:53:18;102517.34;;;-0.60;100.00
18985;BME280;9626;52.552;13.436;2023-02-28T02:55:49;102504.41;;;-0.59;100.00
18985;BME280;9626;52.552;13.436;2023-02-28T02:58:24;102512.63;;;-0.68;100.00
18985;BME280;9626;52.552;13.436;2023-02-28T03:00:55;102518.72;;;-0.67;100.00
18985;BME280;9626;52.552;13.436;2023-02-28T03:03:24;102513.38;;;-0.85;100.00
18985;BME280;9626;52.552;13.436;2023-02-28T03:05:58;102515.38;;;-0.96;100.00
18985;BME280;9626;52.552;13.436;2023-02-28T03:08:26;102511.28;;;-1.07;100.00
18985;BME280;9626;52.552;13.436;2023-02-28T03:10:57;102515.47;;;-1.09;100.00
18985;BME280;9626;52.552;13.436;2023-02-28T03:13:52;102519.34;;;-1.03;100.00
18985;BME280;9626;52.552;13.436;2023-02-28T03:29:47;102526.88;;;-0.92;100.00
18985;BME280;9626;52.552;13.436;2023-02-28T03:32:24;102529.81;;;-1.01;100.00
18985;BME280;9626;52.552;13.436;2023-02-28T03:35:01;102528.50;;;-1.24;100.00
18985;BME280;9626;52.552;13.436;2023-02-28T03:37:33;102528.50;;;-1.24;100.00
18985;BME280;9626;52.552;13.436;2023-02-28T03:40:08;102528.16;;;-1.15;100.00
18985;BME280;9626;52.552;13.436;2023-02-28T03:42:41;102527.44;;;-1.13;100.00
18985;BME280;9626;52.552;13.436;2023-02-28T03:45:18;102533.44;;;-1.14;100.00
18985;BME280;9626;52.552;13.436;2023-02-28T03:50:20;102533.81;;;-1.23;100.00
18985;BME280;9626;52.552;13.436;2023-02-28T03:52:52;102532.91;;;-1.23;100.00
18985;BME280;9626;52.552;13.436;2023-02-28T03:55:32;102526.03;;;-1.38;100.00
18985;BME280;9626;52.552;13.436;2023-02-28T04:00:48;102537.66;;;-1.46;100.00
18985;BME280;9626;52.552;13.436;2023-02-28T04:03:16;102532.19;;;-1.50;100.00
18985;BME280;9626;52.552;13.436;2023-02-28T04:05:52;102538.53;;;-1.60;100.00
18985;BME280;9626;52.552;13.436;2023-02-28T04:08:20;102535.22;;;-1.58;100.00
18985;BME280;9626;52.552;13.436;2023-02-28T04:10:53;102535.69;;;-1.50;100.00
18985;BME280;9626;52.552;13.436;2023-02-28T04:13:20;102536.66;;;-1.48;100.00
18985;BME280;9626;52.552;13.436;2023-02-28T04:15:46;102535.31;;;-1.56;100.00
18985;BME280;9626;52.552;13.436;2023-02-28T04:18:12;102536.91;;;-1.58;100.00
18985;BME280;9626;52.552;13.436;2023-02-28T04:20:38;102535.84;;;-1.62;100.00
18985;BME280;9626;52.552;13.436;2023-02-28T04:23:04;102537.66;;;-1.61;100.00
18985;BME280;9626;52.552;13.436;2023-02-28T04:25:30;102540.13;;;-1.62;100.00
18985;BME280;9626;52.552;13.436;2023-02-28T04:27:56;102538.09;;;-1.53;100.00
18985;BME280;9626;52.552;13.436;2023-02-28T04:30:22;102543.84;;;-1.44;100.00
18985;BME280;9626;52.552;13.436;2023-02-28T04:32:48;102541.88;;;-1.48;100.00
18985;BME280;9626;52.552;13.436;2023-02-28T04:35:14;102543.84;;;-1.44;100.00
18985;BME280;9626;52.552;13.436;2023-02-28T04:37:41;102540.59;;;-1.40;100.00
18985;BME280;9626;52.552;13.436;2023-02-28T04:40:08;102541.16;;;-1.30;100.00
18985;BME280;9626;52.552;13.436;2023-02-28T04:42:34;102542.97;;;-1.29;100.00
18985;BME280;9626;52.552;13.436;2023-02-28T04:45:02;102536.75;;;-1.31;100.00
18985;BME280;9626;52.552;13.436;2023-02-28T04:47:29;102537.13;;;-1.40;100.00
18985;BME280;9626;52.552;13.436;2023-02-28T04:49:55;102545.09;;;-1.52;100.00
18985;BME280;9626;52.552;13.436;2023-02-28T04:52:21;102548.56;;;-1.51;100.00
18985;BME280;9626;52.552;13.436;2023-02-28T04:54:47;102546.97;;;-1.64;100.00
18985;BME280;9626;52.552;13.436;2023-02-28T04:57:13;102550.19;;;-1.54;100.00
18985;BME280;9626;52.552;13.436;2023-02-28T04:59:39;102549.81;;;-1.60;100.00
18985;BME280;9626;52.552;13.436;2023-02-28T05:02:05;102554.38;;;-1.71;100.00
18985;BME280;9626;52.552;13.436;2023-02-28T05:04:33;102554.38;;;-1.71;100.00
18985;BME280;9626;52.552;13.436;2023-02-28T05:07:00;102561.66;;;-1.65;100.00
18985;BME280;9626;52.552;13.436;2023-02-28T05:09:26;102562.03;;;-1.87;100.00
18985;BME280;9626;52.552;13.436;2023-02-28T05:11:54;102556.22;;;-1.83;100.00
18985;BME280;9626;52.552;13.436;2023-02-28T05:14:20;102560.25;;;-1.88;100.00
18985;BME280;9626;52.552;13.436;2023-02-28T05:16:47;102560.16;;;-1.90;100.00
18985;BME280;9626;52.552;13.436;2023-02-28T05:19:13;102567.66;;;-1.94;100.00
18985;BME280;9626;52.552;13.436;2023-02-28T05:21:53;102564.97;;;-1.96;100.00
18985;BME280;9626;52.552;13.436;2023-02-28T05:24:20;102568.06;;;-1.88;100.00
18985;BME280;9626;52.552;13.436;2023-02-28T05:26:49;102571.56;;;-1.73;100.00
18985;BME280;9626;52.552;13.436;2023-02-28T05:29:16;102572.16;;;-1.92;100.00
18985;BME280;9626;52.552;13.436;2023-02-28T05:31:42;102576.41;;;-2.07;100.00
18985;BME280;9626;52.552;13.436;2023-02-28T05:34:08;102569.97;;;-2.27;100.00
18985;BME280;9626;52.552;13.436;2023-02-28T05:36:37;102575.56;;;-2.34;100.00
18985;BME280;9626;52.552;13.436;2023-02-28T05:39:05;102573.06;;;-2.33;100.00
18985;BME280;9626;52.552;13.436;2023-02-28T05:41:31;102581.66;;;-2.34;100.00
18985;BME280;9626;52.552;13.436;2023-02-28T05:43:57;102585.56;;;-2.41;100.00
18985;BME280;9626;52.552;13.436;2023-02-28T05:46:25;102581.66;;;-2.34;100.00
18985;BME280;9626;52.552;13.436;2023-02-28T05:48:51;102583.97;;;-2.39;100.00
18985;BME280;9626;52.552;13.436;2023-02-28T05:51:17;102585.97;;;-2.34;100.00
18985;BME280;9626;52.552;13.436;2023-02-28T05:53:43;102589.34;;;-2.35;100.00
18985;BME280;9626;52.552;13.436;2023-02-28T05:56:10;102590.75;;;-2.41;100.00
18985;BME280;9626;52.552;13.436;2023-02-28T05:58:36;102584.34;;;-2.32;100.00
18985;BME280;9626;52.552;13.436;2023-02-28T06:01:21;102589.72;;;-2.29;100.00
18985;BME280;9626;52.552;13.436;2023-02-28T06:03:48;102594.22;;;-2.27;100.00
18985;BME280;9626;52.552;13.436;2023-02-28T06:06:14;102596.34;;;-2.34;100.00
18985;BME280;9626;52.552;13.436;2023-02-28T06:08:40;102588.03;;;-2.29;100.00
18985;BME280;9626;52.552;13.436;2023-02-28T06:11:06;102591.91;;;-2.22;100.00
18985;BME280;9626;52.552;13.436;2023-02-28T06:13:38;102593.69;;;-2.21;100.00
18985;BME280;9626;52.552;13.436;2023-02-28T06:16:05;102592.91;;;-2.20;100.00
18985;BME280;9626;52.552;13.436;2023-02-28T06:18:31;102592.28;;;-2.16;100.00
18985;BME280;9626;52.552;13.436;2023-02-28T06:20:57;102598.59;;;-2.12;100.00
18985;BME280;9626;52.552;13.436;2023-02-28T06:23:23;102599.28;;;-2.15;100.00
18985;BME280;9626;52.552;13.436;2023-02-28T06:25:49;102607.25;;;-2.12;100.00
18985;BME280;9626;52.552;13.436;2023-02-28T06:28:15;102608.66;;;-2.17;100.00
18985;BME280;9626;52.552;13.436;2023-02-28T06:30:41;102607.88;;;-2.16;100.00
18985;BME280;9626;52.552;13.436;2023-02-28T06:33:07;102607.25;;;-2.12;100.00
18985;BME280;9626;52.552;13.436;2023-02-28T06:35:34;102612.84;;;-2.06;100.00
18985;BME280;9626;52.552;13.436;2023-02-28T06:38:00;102616.91;;;-1.96;100.00
18985;BME280;9626;52.552;13.436;2023-02-28T06:40:26;102616.47;;;-1.89;100.00
18985;BME280;9626;52.552;13.436;2023-02-28T06:42:52;102616.16;;;-1.80;100.00
18985;BME280;9626;52.552;13.436;2023-02-28T06:45:18;102618.78;;;-1.80;100.00
18985;BME280;9626;52.552;13.436;2023-02-28T06:47:44;102622.13;;;-1.67;100.00
18985;BME280;9626;52.552;13.436;2023-02-28T06:50:12;102617.38;;;-1.60;100.00
18985;BME280;9626;52.552;13.436;2023-02-28T06:52:38;102627.97;;;-1.57;100.00
18985;BME280;9626;52.552;13.436;2023-02-28T06:55:07;102622.88;;;-1.55;100.00
18985;BME280;9626;52.552;13.436;2023-02-28T06:57:34;102630.03;;;-1.51;100.00
18985;BME280;9626;52.552;13.436;2023-02-28T07:00:03;102628.81;;;-1.43;100.00
18985;BME280;9626;52.552;13.436;2023-02-28T07:02:30;102634.66;;;-1.32;100.00
18985;BME280;9626;52.552;13.436;2023-02-28T07:04:57;102627.28;;;-1.24;100.00
18985;BME280;9626;52.552;13.436;2023-02-28T07:07:23;102626.03;;;-1.16;100.00
18985;BME280;9626;52.552;13.436;2023-02-28T07:09:49;102627.69;;;-1.03;100.00
18985;BME280;9626;52.552;13.436;2023-02-28T07:12:16;102630.91;;;-0.92;100.00
18985;BME280;9626;52.552;13.436;2023-02-28T07:14:42;102626.03;;;-0.86;100.00
18985;BME280;9626;52.552;13.436;2023-02-28T07:17:09;102626.34;;;-0.81;100.00
18985;BME280;9626;52.552;13.436;2023-02-28T07:19:38;102626.41;;;-0.65;100.00
18985;BME280;9626;52.552;13.436;2023-02-28T07:22:06;102635.72;;;-0.54;100.00
18985;BME280;9626;52.552;13.436;2023-02-28T07:24:32;102631.75;;;-0.47;100.00
18985;BME280;9626;52.552;13.436;2023-02-28T07:26:58;102631.69;;;-0.17;100.00
18985;BME280;9626;52.552;13.436;2023-02-28T07:29:25;102636.94;;;0.16;100.00
18985;BME280;9626;52.552;13.436;2023-02-28T07:31:51;102632.56;;;0.48;100.00
18985;BME280;9626;52.552;13.436;2023-02-28T07:34:22;102640.97;;;0.93;100.00
18985;BME280;9626;52.552;13.436;2023-02-28T07:36:48;102632.25;;;1.45;100.00
18985;BME280;9626;52.552;13.436;2023-02-28T07:39:14;102637.75;;;1.88;100.00
18985;BME280;9626;52.552;13.436;2023-02-28T07:41:40;102631.81;;;2.29;100.00
18985;BME280;9626;52.552;13.436;2023-02-28T07:44:10;102634.84;;;2.58;100.00
18985;BME280;9626;52.552;13.436;2023-02-28T07:46:36;102638.19;;;2.75;100.00
18985;BME280;9626;52.552;13.436;2023-02-28T07:49:03;102635.50;;;2.74;100.00
18985;BME280;9626;52.552;13.436;2023-02-28T07:51:29;102632.25;;;2.79;100.00
18985;BME280;9626;52.552;13.436;2023-02-28T07:53:56;102636.41;;;2.74;100.00
18985;BME280;9626;52.552;13.436;2023-02-28T07:56:22;102636.56;;;2.98;100.00
18985;BME280;9626;52.552;13.436;2023-02-28T07:58:48;102633.13;;;2.99;100.00
18985;BME280;9626;52.552;13.436;2023-02-28T08:01:14;102636.13;;;3.09;95.80
18985;BME280;9626;52.552;13.436;2023-02-28T08:03:40;102641.56;;;3.34;100.00
18985;BME280;9626;52.552;13.436;2023-02-28T08:06:14;102637.97;;;3.32;97.95
18985;BME280;9626;52.552;13.436;2023-02-28T08:08:40;102638.75;;;3.30;92.03
18985;BME280;9626;52.552;13.436;2023-02-28T08:11:06;102634.03;;;3.21;89.46
18985;BME280;9626;52.552;13.436;2023-02-28T08:13:33;102632.44;;;3.25;90.25
18985;BME280;9626;52.552;13.436;2023-02-28T08:16:01;102633.31;;;3.04;89.47
18985;BME280;9626;52.552;13.436;2023-02-28T08:18:28;102641.47;;;3.54;79.63
18985;BME280;9626;52.552;13.436;2023-02-28T08:20:54;102638.81;;;4.20;68.24
18985;BME280;9626;52.552;13.436;2023-02-28T08:23:20;102634.81;;;4.54;61.36
18985;BME280;9626;52.552;13.436;2023-02-28T08:25:55;102631.75;;;4.92;56.17
18985;BME280;9626;52.552;13.436;2023-02-28T08:28:22;102632.63;;;5.44;54.69
18985;BME280;9626;52.552;13.436;2023-02-28T08:30:48;102635.19;;;4.89;57.37
18985;BME280;9626;52.552;13.436;2023-02-28T08:33:14;102637.88;;;4.91;56.61
18985;BME280;9626;52.552;13.436;2023-02-28T08:35:40;102636.78;;;5.65;54.11
18985;BME280;9626;52.552;13.436;2023-02-28T08:38:06;102640.31;;;5.94;53.44
18985;BME280;9626;52.552;13.436;2023-02-28T08:40:32;102645.09;;;5.79;50.46
18985;BME280;9626;52.552;13.436;2023-02-28T08:42:59;102636.56;;;6.15;48.47
18985;BME280;9626;52.552;13.436;2023-02-28T08:45:25;102648.56;;;6.35;48.42
18985;BME280;9626;52.552;13.436;2023-02-28T08:47:51;102642.94;;;6.52;44.81
18985;BME280;9626;52.552;13.436;2023-02-28T08:50:20;102641.44;;;6.95;43.80
18985;BME280;9626;52.552;13.436;2023-02-28T08:52:47;102643.53;;;7.07;44.75
18985;BME280;9626;52.552;13.436;2023-02-28T08:55:13;102638.03;;;7.33;42.41
18985;BME280;9626;52.552;13.436;2023-02-28T08:57:39;102643.31;;;7.69;41.44
18985;BME280;9626;52.552;13.436;2023-02-28T09:00:06;102642.81;;;7.87;39.80
18985;BME280;9626;52.552;13.436;2023-02-28T09:02:33;102647.25;;;8.29;40.03
18985;BME280;9626;52.552;13.436;2023-02-28T09:04:59;102644.78;;;8.37;40.48
18985;BME280;9626;52.552;13.436;2023-02-28T09:07:25;102639.69;;;8.91;38.10
18985;BME280;9626;52.552;13.436;2023-02-28T09:09:51;102644.53;;;9.72;37.39
18985;BME280;9626;52.552;13.436;2023-02-28T09:12:25;102644.44;;;10.27;36.48
18985;BME280;9626;52.552;13.436;2023-02-28T09:14:52;102634.28;;;10.61;35.17
18985;BME280;9626;52.552;13.436;2023-02-28T09:17:19;102638.25;;;11.03;34.48
18985;BME280;9626;52.552;13.436;2023-02-28T09:19:47;102641.38;;;11.62;33.07
18985;BME280;9626;52.552;13.436;2023-02-28T09:22:14;102638.38;;;11.22;35.07
18985;BME280;9626;52.552;13.436;2023-02-28T09:24:40;102638.66;;;11.56;34.83
18985;BME280;9626;52.552;13.436;2023-02-28T09:27:06;102639.78;;;11.92;33.78
18985;BME280;9626;52.552;13.436;2023-02-28T09:29:34;102635.56;;;12.28;34.34
18985;BME280;9626;52.552;13.436;2023-02-28T09:32:00;102642.78;;;12.63;34.71
18985;BME280;9626;52.552;13.436;2023-02-28T09:34:27;102638.72;;;11.62;32.62
18985;BME280;9626;52.552;13.436;2023-02-28T09:36:56;102643.94;;;11.53;32.80
18985;BME280;9626;52.552;13.436;2023-02-28T09:39:23;102636.63;;;12.81;31.84
18985;BME280;9626;52.552;13.436;2023-02-28T09:41:53;102635.59;;;12.37;31.84
18985;BME280;9626;52.552;13.436;2023-02-28T09:44:39;102637.41;;;12.43;30.76
18985;BME280;9626;52.552;13.436;2023-02-28T09:47:16;102639.25;;;12.73;31.90
18985;BME280;9626;52.552;13.436;2023-02-28T09:49:46;102637.41;;;12.43;32.10
18985;BME280;9626;52.552;13.436;2023-02-28T09:52:25;102648.84;;;12.23;32.14
18985;BME280;9626;52.552;13.436;2023-02-28T09:54:54;102643.69;;;12.71;31.30
18985;BME280;9626;52.552;13.436;2023-02-28T09:57:32;102644.44;;;12.34;30.94
18985;BME280;9626;52.552;13.436;2023-02-28T10:05:30;102654.28;;;8.70;36.75
18985;BME280;9626;52.552;13.436;2023-02-28T10:08:17;102655.75;;;8.56;37.75
18985;BME280;9626;52.552;13.436;2023-02-28T10:10:47;102643.56;;;8.21;39.57
18985;BME280;9626;52.552;13.436;2023-02-28T10:15:40;102652.91;;;9.43;36.41
18985;BME280;9626;52.552;13.436;2023-02-28T10:18:12;102648.28;;;9.85;35.71
18985;BME280;9626;52.552;13.436;2023-02-28T10:20:42;102649.91;;;9.76;36.16
18985;BME280;9626;52.552;13.436;2023-02-28T10:23:20;102646.84;;;10.11;36.22
18985;BME280;9626;52.552;13.436;2023-02-28T10:25:54;102650.03;;;10.48;35.73
18985;BME280;9626;52.552;13.436;2023-02-28T10:28:20;102643.34;;;10.85;34.25
18985;BME280;9626;52.552;13.436;2023-02-28T10:30:52;102650.66;;;10.32;34.66
18985;BME280;9626;52.552;13.436;2023-02-28T10:33:55;102642.47;;;10.10;34.97
18985;BME280;9626;52.552;13.436;2023-02-28T10:36:17;102646.59;;;10.57;34.29
18985;BME280;9626;52.552;13.436;2023-02-28T10:38:45;102644.75;;;10.52;34.20
18985;BME280;9626;52.552;13.436;2023-02-28T10:41:26;102644.06;;;10.67;33.45
18985;BME280;9626;52.552;13.436;2023-02-28T10:44:12;102646.81;;;10.79;34.50
18985;BME280;9626;52.552;13.436;2023-02-28T10:46:40;102641.25;;;10.53;34.33
18985;BME280;9626;52.552;13.436;2023-02-28T10:49:14;102650.81;;;10.43;34.30
18985;BME280;9626;52.552;13.436;2023-02-28T10:51:43;102649.63;;;10.19;35.15
18985;BME280;9626;52.552;13.436;2023-02-28T10:54:19;102648.47;;;10.00;35.37
18985;BME280;9626;52.552;13.436;2023-02-28T10:57:06;102635.91;;;10.49;33.64
18985;BME280;9626;52.552;13.436;2023-02-28T10:59:32;102633.03;;;10.34;34.46
18985;BME280;9626;52.552;13.436;2023-02-28T11:01:58;102629.72;;;10.49;35.17
18985;BME280;9626;52.552;13.436;2023-02-28T11:06:59;102629.06;;;9.38;35.73
18985;BME280;9626;52.552;13.436;2023-02-28T11:09:38;102624.13;;;9.08;35.85
18985;BME280;9626;52.552;13.436;2023-02-28T11:12:07;102613.13;;;8.85;35.54
18985;BME280;9626;52.552;13.436;2023-02-28T11:14:40;102613.94;;;8.35;37.68
18985;BME280;9626;52.552;13.436;2023-02-28T11:17:21;102609.44;;;8.29;38.23
18985;BME280;9626;52.552;13.436;2023-02-28T11:19:55;102606.00;;;8.79;38.19
18985;BME280;9626;52.552;13.436;2023-02-28T11:22:28;102603.38;;;8.80;38.44
18985;BME280;9626;52.552;13.436;2023-02-28T11:24:59;102611.03;;;9.16;38.01
18985;BME280;9626;52.552;13.436;2023-02-28T11:29:57;102608.78;;;9.40;36.90
18985;BME280;9626;52.552;13.436;2023-02-28T11:32:30;102605.47;;;9.52;37.45
18985;BME280;9626;52.552;13.436;2023-02-28T11:35:15;102598.06;;;9.31;36.82
18985;BME280;9626;52.552;13.436;2023-02-28T11:37:43;102597.00;;;10.45;35.44
18985;BME280;9626;52.552;13.436;2023-02-28T11:40:21;102593.28;;;11.15;34.23
18985;BME280;9626;52.552;13.436;2023-02-28T11:43:39;102601.28;;;11.22;34.09
18985;BME280;9626;52.552;13.436;2023-02-28T11:46:04;102604.47;;;12.05;32.53
18985;BME280;9626;52.552;13.436;2023-02-28T11:51:20;102601.19;;;12.96;31.39
18985;BME280;9626;52.552;13.436;2023-02-28T11:54:06;102612.72;;;13.18;31.27
18985;BME280;9626;52.552;13.436;2023-02-28T11:56:43;102608.16;;;14.03;29.97
18985;BME280;9626;52.552;13.436;2023-02-28T12:02:05;102603.97;;;11.26;33.14
18985;BME280;9626;52.552;13.436;2023-02-28T12:13:08;102595.81;;;8.52;37.73
18985;BME280;9626;52.552;13.436;2023-02-28T12:26:36;102576.59;;;11.29;34.10
18985;BME280;9626;52.552;13.436;2023-02-28T12:29:23;102574.47;;;12.23;33.53
18985;BME280;9626;52.552;13.436;2023-02-28T12:31:59;102563.88;;;12.37;32.56
18985;BME280;9626;52.552;13.436;2023-02-28T12:34:34;102554.06;;;12.08;33.27
18985;BME280;9626;52.552;13.436;2023-02-28T12:37:07;102558.56;;;12.43;33.14
18985;BME280;9626;52.552;13.436;2023-02-28T12:39:40;102552.41;;;12.50;32.23
18985;BME280;9626;52.552;13.436;2023-02-28T12:42:19;102552.38;;;12.41;33.17
18985;BME280;9626;52.552;13.436;2023-02-28T12:44:49;102540.94;;;12.76;32.20
18985;BME280;9626;52.552;13.436;2023-02-28T12:47:18;102541.81;;;13.00;32.70
18985;BME280;9626;52.552;13.436;2023-02-28T12:50:02;102536.41;;;13.65;31.64
18985;BME280;9626;52.552;13.436;2023-02-28T12:52:47;102536.47;;;13.00;31.73
18985;BME280;9626;52.552;13.436;2023-02-28T12:57:57;102519.63;;;13.40;31.95
18985;BME280;9626;52.552;13.436;2023-02-28T13:00:35;102528.50;;;13.22;31.06
18985;BME280;9626;52.552;13.436;2023-02-28T13:10:50;102505.88;;;11.31;33.23
18985;BME280;9626;52.552;13.436;2023-02-28T13:13:28;102505.63;;;10.97;33.41
18985;BME280;9626;52.552;13.436;2023-02-28T13:18:42;102508.00;;;10.63;34.63
18985;BME280;9626;52.552;13.436;2023-02-28T13:21:27;102501.38;;;10.21;35.91
18985;BME280;9626;52.552;13.436;2023-02-28T13:39:52;102505.47;;;9.92;34.74
18985;BME280;9626;52.552;13.436;2023-02-28T13:47:41;102498.81;;;8.41;38.28
18985;BME280;9626;52.552;13.436;2023-02-28T13:50:39;102493.34;;;8.32;38.72
18985;BME280;9626;52.552;13.436;2023-02-28T14:06:59;102482.13;;;9.56;36.57
18985;BME280;9626;52.552;13.436;2023-02-28T14:09:36;102475.78;;;9.44;36.74
18985;BME280;9626;52.552;13.436;2023-02-28T14:17:53;102481.78;;;10.03;35.61
18985;BME280;9626;52.552;13.436;2023-02-28T14:20:21;102487.56;;;10.46;34.29
18985;BME280;9626;52.552;13.436;2023-02-28T14:22:57;102483.78;;;11.30;32.73
18985;BME280;9626;52.552;13.436;2023-02-28T14:33:46;102487.00;;;9.28;37.26
18985;BME280;9626;52.552;13.436;2023-02-28T14:36:26;102477.97;;;9.76;37.29
18985;BME280;9626;52.552;13.436;2023-02-28T14:38:56;102482.84;;;10.21;36.99
18985;BME280;9626;52.552;13.436;2023-02-28T14:41:34;102488.16;;;10.21;37.26
18985;BME280;9626;52.552;13.436;2023-02-28T14:46:44;102468.25;;;10.57;36.01
18985;BME280;9626;52.552;13.436;2023-02-28T14:49:28;102473.25;;;10.32;37.88
18985;BME280;9626;52.552;13.436;2023-02-28T14:52:23;102468.19;;;10.54;36.36
18985;BME280;9626;52.552;13.436;2023-02-28T14:54:55;102471.44;;;10.28;36.75
18985;BME280;9626;52.552;13.436;2023-02-28T14:57:30;102470.72;;;10.41;36.40
18985;BME280;9626;52.552;13.436;2023-02-28T14:59:58;102470.06;;;10.67;35.26
18985;BME280;9626;52.552;13.436;2023-02-28T15:02:26;102464.19;;;11.08;34.78
18985;BME280;9626;52.552;13.436;2023-02-28T15:04:57;102468.03;;;11.66;33.90
18985;BME280;9626;52.552;13.436;2023-02-28T15:07:27;102470.53;;;11.29;34.40
18985;BME280;9626;52.552;13.436;2023-02-28T15:10:16;102459.56;;;10.76;35.21
18985;BME280;9626;52.552;13.436;2023-02-28T15:13:07;102464.94;;;10.86;34.93
18985;BME280;9626;52.552;13.436;2023-02-28T15:15:49;102456.13;;;10.90;34.51
18985;BME280;9626;52.552;13.436;2023-02-28T15:18:29;102458.31;;;10.36;35.64
18985;BME280;9626;52.552;13.436;2023-02-28T15:21:06;102448.78;;;9.73;36.40
18985;BME280;9626;52.552;13.436;2023-02-28T15:23:35;102448.84;;;9.09;38.00
18985;BME280;9626;52.552;13.436;2023-02-28T15:26:02;102446.06;;;9.64;36.94